Time;durP1;ratioP1;P1;durP2;ratioP2;P2;SDS_P1;SDS_P2;PMS_P1;PMS_P2;Temp;Humidity;BMP_temperature;BMP_pressure;BME280_temperature;BME280_humidity;BME280_pressure;Samples;Min_cycle;Max_cycle;Signal;HPM_P1;HPM_P2
2023/03/13 00:01:12;;;;;;;0.60;0.33;;;10.70;99.90;;;;;;4974493;28;20459;-74
2023/03/13 00:03:40;;;;;;;0.60;0.33;;;10.70;99.90;;;;;;4980264;28;20450;-75
2023/03/13 00:06:09;;;;;;;2.10;1.07;;;10.70;99.90;;;;;;4975247;28;20471;-75
2023/03/13 00:08:37;;;;;;;0.50;0.10;;;10.70;99.90;;;;;;4974565;28;20456;-74
2023/03/13 00:11:05;;;;;;;2.57;2.00;;;10.70;99.90;;;;;;4975029;28;20506;-74
2023/03/13 00:13:34;;;;;;;2.50;2.00;;;10.70;99.90;;;;;;4975832;28;20454;-74
2023/03/13 00:16:03;;;;;;;0.70;0.20;;;10.60;99.90;;;;;;4975623;28;20451;-74
2023/03/13 00:18:32;;;;;;;0.70;0.30;;;10.70;99.90;;;;;;4974451;28;20850;-73
2023/03/13 00:21:00;;;;;;;4.53;2.20;;;10.70;99.90;;;;;;4973774;28;20448;-73
2023/03/13 00:23:29;;;;;;;1.07;0.70;;;10.70;99.90;;;;;;4974080;28;20442;-74
2023/03/13 00:25:58;;;;;;;0.50;0.13;;;10.70;99.90;;;;;;4973559;28;20482;-73
2023/03/13 00:28:28;;;;;;;1.77;0.63;;;10.70;99.90;;;;;;4973668;28;20450;-73
2023/03/13 00:31:03;;;;;;;3.97;0.30;;;10.70;99.90;;;;;;4974177;28;20450;-72
2023/03/13 00:33:33;;;;;;;2.07;0.50;;;10.60;99.90;;;;;;4973861;28;20449;-72
2023/03/13 00:36:02;;;;;;;2.77;0.93;;;10.70;99.90;;;;;;4974375;28;20446;-74
2023/03/13 00:38:30;;;;;;;0.50;0.10;;;10.70;99.90;;;;;;4972403;28;21154;-73
2023/03/13 00:41:01;;;;;;;1.33;0.60;;;10.70;99.90;;;;;;4975818;28;20453;-73
2023/03/13 00:43:30;;;;;;;0.50;0.10;;;10.70;99.90;;;;;;4962721;28;20455;-72
2023/03/13 00:45:57;;;;;;;21.07;2.20;;;10.70;99.90;;;;;;4963829;29;20502;-72
2023/03/13 00:48:25;;;;;;;0.50;0.30;;;10.70;99.90;;;;;;4962906;28;20463;-73
2023/03/13 00:50:55;;;;;;;0.60;0.33;;;10.70;99.90;;;;;;4954914;28;20451;-74
2023/03/13 00:53:23;;;;;;;0.50;0.20;;;10.70;99.90;;;;;;4970150;28;20457;-73
2023/03/13 00:55:53;;;;;;;0.50;0.10;;;10.70;99.90;;;;;;4976932;28;20806;-73
2023/03/13 00:58:21;;;;;;;0.50;0.20;;;10.70;99.90;;;;;;4974341;28;20447;-73
2023/03/13 05:01:40;;;;;;;0.70;0.30;;;10.50;1.00;;;;;;5522462;23;20468;-75
2023/03/13 05:04:09;;;;;;;0.50;0.10;;;10.40;1.00;;;;;;4993222;28;20473;-75
2023/03/13 05:06:37;;;;;;;0.50;0.10;;;10.30;1.00;;;;;;4988934;28;20979;-76
2023/03/13 05:09:06;;;;;;;0.70;0.53;;;10.40;1.00;;;;;;4993767;28;20434;-75
2023/03/13 05:11:34;;;;;;;0.50;0.20;;;10.40;1.00;;;;;;4993920;28;20971;-75
2023/03/13 05:14:03;;;;;;;1.00;0.90;;;10.40;1.00;;;;;;4993947;28;20446;-74
2023/03/13 05:16:31;;;;;;;0.50;0.10;;;10.40;1.00;;;;;;5011547;23;20501;-73
2023/03/13 05:19:00;;;;;;;0.50;0.10;;;10.40;1.00;;;;;;4993054;28;20466;-71
2023/03/13 05:21:28;;;;;;;0.83;0.50;;;10.40;1.00;;;;;;4993261;28;20442;-74
2023/03/13 05:23:56;;;;;;;0.57;0.20;;;10.40;1.00;;;;;;4992596;28;20801;-73
2023/03/13 05:26:24;;;;;;;0.70;0.50;;;10.40;1.00;;;;;;4992820;28;20853;-72
2023/03/13 05:28:52;;;;;;;0.50;0.20;;;10.40;1.00;;;;;;4992670;28;20453;-72
2023/03/13 05:31:19;;;;;;;0.50;0.10;;;10.50;1.00;;;;;;4992430;28;20459;-72
2023/03/13 05:33:47;;;;;;;0.50;0.10;;;10.50;1.00;;;;;;4992662;28;20445;-72
2023/03/13 05:36:16;;;;;;;0.50;0.20;;;10.50;1.00;;;;;;4992465;28;20466;-72
2023/03/13 05:38:44;;;;;;;0.50;0.30;;;10.50;1.00;;;;;;4992630;28;20523;-72
2023/03/13 05:41:15;;;;;;;0.50;0.10;;;10.50;1.00;;;;;;4991546;28;20456;-74
2023/03/13 05:43:43;;;;;;;0.50;0.10;;;10.50;1.00;;;;;;4977749;28;20483;-73
2023/03/13 05:46:11;;;;;;;0.50;0.10;;;10.60;1.00;;;;;;4992067;28;20480;-71
2023/03/13 05:48:39;;;;;;;0.50;0.10;;;10.60;1.00;;;;;;4992583;28;20808;-73
2023/03/13 05:51:07;;;;;;;0.50;0.17;;;10.60;1.00;;;;;;4992621;28;20516;-72
2023/03/13 05:53:36;;;;;;;0.50;0.10;;;10.60;1.00;;;;;;4992317;28;20862;-72
2023/03/13 05:56:04;;;;;;;0.50;0.10;;;10.60;1.00;;;;;;4999080;28;20460;-71
2023/03/13 05:58:32;;;;;;;0.60;0.50;;;10.60;1.00;;;;;;4973115;28;20828;-71
2023/03/13 06:01:05;;;;;;;2.33;2.23;;;10.60;1.00;;;;;;4973183;28;20447;-72
2023/03/13 06:03:33;;;;;;;0.70;0.30;;;10.70;1.00;;;;;;4976159;28;20789;-73
2023/03/13 06:06:01;;;;;;;0.50;0.10;;;10.70;1.00;;;;;;4991583;28;21008;-71
2023/03/13 06:08:29;;;;;;;0.50;0.20;;;10.70;1.00;;;;;;4992689;28;20446;-71
2023/03/13 06:11:00;;;;;;;0.50;0.10;;;10.80;1.00;;;;;;4992490;28;20488;-73
2023/03/13 06:13:28;;;;;;;0.80;0.53;;;10.90;1.00;;;;;;4992534;28;20854;-72
2023/03/13 06:15:57;;;;;;;0.50;0.10;;;10.90;1.00;;;;;;4980456;28;20471;-73
2023/03/13 06:18:26;;;;;;;0.50;0.10;;;10.90;1.00;;;;;;4973983;28;20937;-72
2023/03/13 06:20:59;;;;;;;0.50;0.10;;;11.00;1.00;;;;;;4986292;28;20826;-72
2023/03/13 06:23:27;;;;;;;3.03;1.23;;;11.10;1.00;;;;;;4975785;28;20453;-73
2023/03/13 06:25:55;;;;;;;0.50;0.10;;;11.10;1.00;;;;;;4974291;28;20489;-73
2023/03/13 06:28:24;;;;;;;0.50;0.10;;;11.10;1.00;;;;;;4975086;28;20463;-72
2023/03/13 06:30:52;;;;;;;0.50;0.10;;;11.10;1.00;;;;;;4969128;28;20479;-72
2023/03/13 06:33:20;;;;;;;0.60;0.30;;;11.10;1.00;;;;;;4977676;28;20475;-73
2023/03/13 06:35:48;;;;;;;4.67;1.70;;;11.20;1.00;;;;;;4977328;28;20562;-73
2023/03/13 06:38:24;;;;;;;0.50;0.10;;;11.20;1.00;;;;;;4977071;28;20846;-73
2023/03/13 06:40:52;;;;;;;0.50;0.10;;;11.20;1.00;;;;;;4979269;28;20458;-72
2023/03/13 06:43:20;;;;;;;0.50;0.10;;;11.20;1.00;;;;;;4976837;28;20451;-72
2023/03/13 06:45:49;;;;;;;0.50;0.10;;;11.30;1.00;;;;;;4974220;28;20991;-72
2023/03/13 06:48:18;;;;;;;0.50;0.10;;;11.30;1.00;;;;;;4973216;28;20957;-73
2023/03/13 06:50:46;;;;;;;0.50;0.10;;;11.40;1.00;;;;;;4974113;28;20451;-72
2023/03/13 06:53:16;;;;;;;0.50;0.10;;;11.40;1.00;;;;;;4975038;28;20461;-72
2023/03/13 06:55:44;;;;;;;0.50;0.10;;;11.40;1.00;;;;;;4974794;28;20467;-72
2023/03/13 06:58:12;;;;;;;0.50;0.10;;;11.50;1.00;;;;;;4975083;28;20447;-72
2023/03/13 07:00:59;;;;;;;0.50;0.10;;;11.50;1.00;;;;;;4974947;28;20452;-72
2023/03/13 07:03:27;;;;;;;0.50;0.10;;;11.50;1.00;;;;;;4974966;28;20925;-73
2023/03/13 07:05:56;;;;;;;0.50;0.10;;;11.60;1.00;;;;;;4974468;28;20573;-74
2023/03/13 07:08:24;;;;;;;0.50;0.10;;;11.60;1.00;;;;;;4975074;28;20446;-73
2023/03/13 07:10:53;;;;;;;0.50;0.10;;;11.60;1.00;;;;;;4975373;28;20452;-72
2023/03/13 07:13:21;;;;;;;0.50;0.10;;;11.60;1.00;;;;;;4974532;28;20812;-73
2023/03/13 07:15:50;;;;;;;0.50;0.10;;;11.70;1.00;;;;;;4974341;28;20566;-72
2023/03/13 07:18:19;;;;;;;0.50;0.10;;;11.70;1.00;;;;;;4975263;28;20467;-72
2023/03/13 07:20:53;;;;;;;0.60;0.30;;;11.80;1.00;;;;;;4975268;28;20482;-73
2023/03/13 07:23:21;;;;;;;0.50;0.10;;;11.80;1.00;;;;;;4974037;28;20939;-71
2023/03/13 07:25:55;;;;;;;0.70;0.30;;;11.70;1.00;;;;;;4973973;28;20479;-72
2023/03/13 07:28:24;;;;;;;0.50;0.10;;;11.80;1.00;;;;;;4974619;28;21015;-71
2023/03/13 07:30:53;;;;;;;0.50;0.20;;;11.80;1.00;;;;;;4973726;28;20505;-72
2023/03/13 07:33:22;;;;;;;0.50;0.10;;;11.80;1.00;;;;;;4974756;28;20803;-72
2023/03/13 07:35:51;;;;;;;0.50;0.10;;;11.90;1.00;;;;;;4974266;28;20462;-72
2023/03/13 07:38:19;;;;;;;0.50;0.10;;;11.90;1.00;;;;;;4974122;28;20443;-72
2023/03/13 07:40:49;;;;;;;0.50;0.20;;;11.90;1.00;;;;;;4974392;28;20446;-74
2023/03/13 07:43:17;;;;;;;1.30;1.20;;;11.90;1.00;;;;;;4973903;28;20482;-72
2023/03/13 07:45:55;;;;;;;0.50;0.10;;;12.00;1.00;;;;;;4973994;28;20506;-73
2023/03/13 07:48:25;;;;;;;0.50;0.27;;;12.00;1.00;;;;;;4974125;28;20797;-73
2023/03/13 07:50:55;;;;;;;0.50;0.10;;;12.00;1.00;;;;;;4974188;28;20451;-72
2023/03/13 07:53:23;;;;;;;0.57;0.20;;;12.10;1.00;;;;;;4974102;28;20451;-72
2023/03/13 07:55:56;;;;;;;1.13;0.90;;;12.10;1.00;;;;;;4973502;28;20515;-74
2023/03/13 07:58:25;;;;;;;0.60;0.30;;;12.20;1.00;;;;;;4973802;28;20987;-72
2023/03/13 08:00:53;;;;;;;1.03;0.40;;;12.20;1.00;;;;;;4974101;28;20448;-73
2023/03/13 08:03:22;;;;;;;0.50;0.20;;;12.20;1.00;;;;;;4973972;28;20454;-72
2023/03/13 08:05:59;;;;;;;0.50;0.10;;;12.20;1.00;;;;;;4973965;28;20468;-73
2023/03/13 08:08:27;;;;;;;0.50;0.10;;;12.30;1.00;;;;;;4974210;28;20451;-73
2023/03/13 08:11:00;;;;;;;1.57;0.70;;;12.40;1.00;;;;;;4973971;28;20457;-71
2023/03/13 08:13:28;;;;;;;0.50;0.20;;;12.40;1.00;;;;;;4974132;28;20553;-72
2023/03/13 08:16:03;;;;;;;0.50;0.10;;;12.40;1.00;;;;;;4984920;28;20478;-71
2023/03/13 08:18:33;;;;;;;0.67;0.40;;;12.50;1.00;;;;;;4993519;28;20446;-73
2023/03/13 08:21:04;;;;;;;0.50;0.20;;;12.50;1.00;;;;;;4993098;28;20454;-73
2023/03/13 08:23:32;;;;;;;0.60;0.20;;;;;;;;;;4979737;28;20438;-74
2023/03/13 08:26:05;;;;;;;0.50;0.20;;;12.60;1.00;;;;;;4973365;28;20468;-73
2023/03/13 08:28:33;;;;;;;0.50;0.10;;;12.60;1.00;;;;;;4985734;28;20487;-72
2023/03/13 08:31:08;;;;;;;1.03;0.97;;;12.60;1.00;;;;;;4977067;28;20490;-74
2023/03/13 08:33:36;;;;;;;2.93;0.80;;;12.70;1.00;;;;;;4973787;28;21022;-73
2023/03/13 08:36:17;;;;;;;0.50;0.10;;;12.80;1.00;;;;;;4974351;28;20530;-74
2023/03/13 08:38:46;;;;;;;0.60;0.30;;;12.90;1.00;;;;;;4979737;28;20456;-73
2023/03/13 08:41:15;;;;;;;1.17;0.53;;;13.00;1.00;;;;;;4998296;28;20468;-74
2023/03/13 08:43:43;;;;;;;0.60;0.30;;;13.10;1.00;;;;;;4996616;28;20493;-72
2023/03/13 08:46:12;;;;;;;0.93;0.40;;;13.20;1.00;;;;;;4994334;28;20464;-73
2023/03/13 08:48:40;;;;;;;0.70;0.30;;;13.30;1.00;;;;;;4994174;28;20571;-73
2023/03/13 08:51:10;;;;;;;0.60;0.20;;;13.40;1.00;;;;;;4994343;28;20461;-73
2023/03/13 08:53:41;;;;;;;0.60;0.17;;;13.40;1.00;;;;;;4991042;28;20449;-73
2023/03/13 08:56:10;;;;;;;0.60;0.20;;;13.50;1.00;;;;;;4985873;28;20515;-72
2023/03/13 08:58:38;;;;;;;1.07;0.30;;;13.50;1.00;;;;;;4974231;28;20452;-73
2023/03/13 09:01:08;;;;;;;0.60;0.20;;;13.60;1.00;;;;;;4985323;28;20453;-73
2023/03/13 09:03:36;;;;;;;2.90;1.73;;;13.60;1.00;;;;;;4994019;28;20452;-71
2023/03/13 09:06:04;;;;;;;1.13;0.60;;;13.60;1.00;;;;;;4993788;28;20472;-72
2023/03/13 09:08:33;;;;;;;1.00;0.67;;;13.60;1.00;;;;;;4995021;28;20512;-73
2023/03/13 09:11:04;;;;;;;2.63;1.87;;;13.60;1.00;;;;;;4979764;28;20461;-73
2023/03/13 09:13:34;;;;;;;0.90;0.63;;;13.70;1.00;;;;;;4984293;28;20585;-72
2023/03/13 09:16:07;;;;;;;0.60;0.10;;;13.70;1.00;;;;;;4977220;28;20556;-73
2023/03/13 09:18:35;;;;;;;2.70;1.40;;;13.80;1.00;;;;;;4974334;28;20497;-73
2023/03/13 09:21:06;;;;;;;0.60;0.27;;;13.80;1.00;;;;;;4973183;28;20446;-72
2023/03/13 09:23:34;;;;;;;2.30;1.43;;;13.80;1.00;;;;;;4963963;28;20448;-73
2023/03/13 09:26:03;;;;;;;2.60;1.40;;;13.80;1.00;;;;;;4972046;28;20863;-72
2023/03/13 09:28:32;;;;;;;0.60;0.40;;;13.80;1.00;;;;;;4972938;28;20500;-74
2023/03/13 09:31:08;;;;;;;0.90;0.87;;;13.80;1.00;;;;;;4974530;28;20501;-73
2023/03/13 09:33:36;;;;;;;0.60;0.30;;;13.90;1.00;;;;;;4954175;29;20452;-73
2023/03/13 09:36:05;;;;;;;0.63;0.33;;;14.00;1.00;;;;;;4953281;28;20477;-72
2023/03/13 09:38:33;;;;;;;0.70;0.30;;;14.00;1.00;;;;;;4953839;28;20449;-73
2023/03/13 09:41:14;;;;;;;0.80;0.47;;;13.90;1.00;;;;;;4953297;29;20541;-75
2023/03/13 09:43:46;;;;;;;0.60;0.23;;;14.00;1.00;;;;;;4960283;28;20453;-73
2023/03/13 09:46:22;;;;;;;0.90;0.73;;;14.10;1.00;;;;;;4972593;28;20473;-74
2023/03/13 09:48:56;;;;;;;0.60;0.10;;;14.10;1.00;;;;;;4972767;28;20925;-72
2023/03/13 09:51:28;;;;;;;1.00;0.47;;;14.10;1.00;;;;;;4972938;28;20442;-73
2023/03/13 09:54:01;;;;;;;0.60;0.10;;;14.10;1.00;;;;;;4974557;28;20459;-73
2023/03/13 09:56:41;;;;;;;0.60;0.20;;;14.10;1.00;;;;;;4976279;28;20983;-73
2023/03/13 09:59:16;;;;;;;0.70;0.57;;;14.10;1.00;;;;;;4976377;28;20441;-73
2023/03/13 10:01:46;;;;;;;0.60;0.20;;;14.10;1.00;;;;;;4976260;28;20512;-74
2023/03/13 10:04:29;;;;;;;0.90;0.43;;;14.10;1.00;;;;;;4975888;28;20995;-74
2023/03/13 10:06:57;;;;;;;1.63;0.70;;;14.10;1.00;;;;;;4976585;28;20877;-72
2023/03/13 10:09:30;;;;;;;0.70;0.50;;;14.10;1.00;;;;;;4976091;28;20488;-73
2023/03/13 10:12:07;;;;;;;0.60;0.10;;;14.10;1.00;;;;;;4976740;28;20477;-73
2023/03/13 10:14:43;;;;;;;0.60;0.20;;;14.10;1.00;;;;;;4976557;28;20631;-73
2023/03/13 10:17:20;;;;;;;0.60;0.43;;;14.20;1.00;;;;;;4995782;28;20450;-73
2023/03/13 10:19:55;;;;;;;0.60;0.20;;;14.20;1.00;;;;;;4995403;28;20460;-72
2023/03/13 10:22:26;;;;;;;0.60;0.20;;;14.30;1.00;;;;;;4991711;28;20441;-74
2023/03/13 10:24:58;;;;;;;1.87;1.30;;;14.40;1.00;;;;;;4975543;28;20468;-73
2023/03/13 10:27:27;;;;;;;1.00;0.33;;;14.40;1.00;;;;;;4976273;28;20450;-73
2023/03/13 10:29:55;;;;;;;0.80;0.50;;;14.40;1.00;;;;;;4976145;28;20454;-72
2023/03/13 10:32:23;;;;;;;1.00;0.67;;;14.50;1.00;;;;;;4987531;28;20462;-72
2023/03/13 10:34:55;;;;;;;0.70;0.43;;;14.60;1.00;;;;;;4995058;28;20882;-73
2023/03/13 10:37:25;;;;;;;0.70;0.40;;;14.60;1.00;;;;;;4995621;28;20446;-73
2023/03/13 10:39:53;;;;;;;0.60;0.10;;;14.60;1.00;;;;;;4995306;28;20454;-72
2023/03/13 10:42:27;;;;;;;1.00;0.37;;;14.70;1.00;;;;;;4995390;28;20954;-75
2023/03/13 10:45:06;;;;;;;0.90;0.43;;;14.60;1.00;;;;;;4994993;28;20511;-73
2023/03/13 10:47:35;;;;;;;3.30;1.10;;;14.60;1.00;;;;;;5002850;28;20456;-74
2023/03/13 10:50:04;;;;;;;0.60;0.20;;;16.30;1.00;;;;;;5006238;28;20458;-74
2023/03/13 10:52:35;;;;;;;1.00;0.50;;;14.60;1.00;;;;;;5002792;28;20453;-73
2023/03/13 10:55:05;;;;;;;0.60;0.10;;;14.70;1.00;;;;;;4995340;28;20468;-72
2023/03/13 10:57:35;;;;;;;0.60;0.20;;;14.70;1.00;;;;;;4994817;28;20453;-72
2023/03/13 11:00:23;;;;;;;5.87;0.67;;;14.80;1.00;;;;;;4995292;28;20844;-73
2023/03/13 11:02:52;;;;;;;0.60;0.20;;;14.90;1.00;;;;;;4990528;28;20952;-74
2023/03/13 11:05:38;;;;;;;1.40;1.20;;;14.90;99.90;;;;;;4997758;28;20480;-72
2023/03/13 11:08:24;;;;;;;0.60;0.10;;;14.90;99.90;;;;;;4995635;28;20478;-74
2023/03/13 11:10:55;;;;;;;0.60;0.47;;;14.90;99.90;;;;;;4993496;28;20962;-74
2023/03/13 11:13:33;;;;;;;0.60;0.20;;;15.00;99.90;;;;;;4995749;28;20468;-73
2023/03/13 11:16:20;;;;;;;0.60;0.20;;;15.00;99.90;;;;;;4978286;28;20470;-74
2023/03/13 11:19:08;;;;;;;12.73;1.33;;;15.10;99.90;;;;;;4955911;28;20513;-74
2023/03/13 11:21:45;;;;;;;0.60;0.30;;;15.10;99.90;;;;;;4964881;28;20468;-74
2023/03/13 11:24:19;;;;;;;0.70;0.30;;;15.00;99.90;;;;;;4974907;28;20442;-73
2023/03/13 11:26:56;;;;;;;1.00;0.63;;;15.00;99.90;;;;;;4975388;28;20562;-73
2023/03/13 11:29:39;;;;;;;1.43;1.30;;;15.00;99.90;;;;;;4971380;28;20510;-72
2023/03/13 11:32:20;;;;;;;1.10;1.00;;;15.00;99.90;;;;;;4971635;28;20971;-73
2023/03/13 11:34:53;;;;;;;0.60;0.30;;;15.00;99.90;;;;;;4966740;28;20555;-73
2023/03/13 11:37:23;;;;;;;3.03;0.83;;;15.00;99.90;;;;;;4955769;29;20600;-73
2023/03/13 11:39:56;;;;;;;0.60;0.10;;;;;;;;;;4963692;28;20449;-74
2023/03/13 11:42:42;;;;;;;1.10;0.53;;;15.00;99.90;;;;;;4964360;28;20444;-74
2023/03/13 11:45:28;;;;;;;1.07;0.90;;;15.00;99.90;;;;;;4970449;28;20476;-73
2023/03/13 11:48:01;;;;;;;0.60;0.20;;;;;;;;;;4974715;28;20459;-73
2023/03/13 11:50:35;;;;;;;0.60;0.17;;;15.00;99.90;;;;;;4966061;28;20455;-73
2023/03/13 11:53:21;;;;;;;0.60;0.10;;;15.00;99.90;;;;;;4974651;28;20958;-76
2023/03/13 11:56:01;;;;;;;1.23;0.20;;;15.10;99.90;;;;;;4974180;28;20891;-72
2023/03/13 11:58:43;;;;;;;0.60;0.10;;;15.10;99.90;;;;;;4974207;28;20443;-73
2023/03/13 12:01:14;;;;;;;0.70;0.57;;;15.10;99.90;;;;;;4973841;28;20949;-74
2023/03/13 12:03:55;;;;;;;1.23;0.73;;;15.20;99.90;;;;;;4974212;28;20513;-72
2023/03/13 12:06:29;;;;;;;0.60;0.40;;;15.20;99.90;;;;;;4960953;28;20476;-78
2023/03/13 12:09:04;;;;;;;0.80;0.60;;;15.20;99.90;;;;;;4974056;28;20483;-73
2023/03/13 12:11:42;;;;;;;0.60;0.20;;;15.30;99.90;;;;;;4976033;28;20480;-73
2023/03/13 12:14:14;;;;;;;0.60;0.10;;;15.40;99.90;;;;;;4979574;28;20461;-72
2023/03/13 12:16:47;;;;;;;0.70;0.30;;;15.40;99.90;;;;;;4978883;28;20496;-72
2023/03/13 12:19:21;;;;;;;1.90;1.43;;;15.50;99.90;;;;;;4978260;28;20447;-73
2023/03/13 12:21:52;;;;;;;0.70;0.30;;;15.60;99.90;;;;;;4977578;28;20482;-72
2023/03/13 12:24:27;;;;;;;0.97;0.60;;;15.60;99.90;;;;;;4976809;28;20510;-72
2023/03/13 12:26:59;;;;;;;0.60;0.10;;;15.60;99.90;;;;;;4974620;28;20452;-72
2023/03/13 12:29:39;;;;;;;1.43;1.33;;;15.60;99.90;;;;;;4974116;28;20489;-74
2023/03/13 12:32:14;;;;;;;0.90;0.73;;;15.70;99.90;;;;;;4973863;28;20445;-74
2023/03/13 12:34:55;;;;;;;1.63;0.80;;;15.70;99.90;;;;;;4967621;28;20457;-72
2023/03/13 12:37:29;;;;;;;0.60;0.10;;;15.70;99.90;;;;;;4973500;28;20456;-74
2023/03/13 12:40:03;;;;;;;3.53;0.90;;;15.70;99.90;;;;;;4973444;28;21096;-75
2023/03/13 12:42:45;;;;;;;0.80;0.30;;;15.60;99.90;;;;;;4971388;28;20466;-74
2023/03/13 12:45:17;;;;;;;0.60;0.40;;;15.60;99.90;;;;;;4973139;28;20840;-74
2023/03/13 12:48:16;;;;;;;1.10;0.40;;;15.60;99.90;;;;;;4973752;28;20479;-73
2023/03/13 12:50:59;;;;;;;0.70;0.27;;;15.60;99.90;;;;;;4973720;28;20483;-73
2023/03/13 12:53:40;;;;;;;0.87;0.53;;;15.50;99.90;;;;;;4973350;28;21004;-74
2023/03/13 12:56:17;;;;;;;0.60;0.10;;;;;;;;;;4973064;28;20821;-73
2023/03/13 12:58:49;;;;;;;2.57;1.03;;;15.50;99.90;;;;;;4973369;28;20994;-73
2023/03/13 13:01:29;;;;;;;0.87;0.40;;;15.50;99.90;;;;;;4973521;28;20452;-74
2023/03/13 13:04:00;;;;;;;0.60;0.10;;;15.50;99.90;;;;;;4973308;28;20513;-74
2023/03/13 13:06:50;;;;;;;0.60;0.27;;;15.50;99.90;;;;;;4973505;28;21039;-74
2023/03/13 13:09:22;;;;;;;0.60;0.10;;;15.60;99.90;;;;;;4973052;28;20632;-75
2023/03/13 13:11:53;;;;;;;0.70;0.30;;;15.50;99.90;;;;;;4967459;28;20455;-73
2023/03/13 13:14:57;;;;;;;0.60;0.20;;;15.60;99.90;;;;;;4974016;28;20443;-73
2023/03/13 13:17:35;;;;;;;0.60;0.20;;;15.60;99.90;;;;;;4973121;28;20806;-73
2023/03/13 13:20:51;;;;;;;0.60;0.10;;;15.60;99.90;;;;;;4962978;28;20469;-75
2023/03/13 13:23:26;;;;;;;0.60;0.10;;;15.80;99.90;;;;;;4961740;28;20452;-74
2023/03/13 13:25:56;;;;;;;0.60;0.10;;;16.00;99.90;;;;;;4953744;29;20841;-74
2023/03/13 13:28:31;;;;;;;0.60;0.10;;;16.20;99.90;;;;;;4962163;28;20472;-74
2023/03/13 13:30:59;;;;;;;0.60;0.10;;;16.20;99.90;;;;;;4962435;28;20570;-75
2023/03/13 13:33:40;;;;;;;0.70;0.40;;;16.30;99.90;;;;;;4957623;29;20454;-74
2023/03/13 13:36:29;;;;;;;0.60;0.40;;;16.40;99.90;;;;;;4969658;28;20483;-73
2023/03/13 13:38:59;;;;;;;4.97;2.63;;;;;;;;;;4971777;28;20443;-73
2023/03/13 13:41:37;;;;;;;0.60;0.10;;;16.40;99.90;;;;;;4974467;28;20950;-74
2023/03/13 13:44:22;;;;;;;0.60;0.10;;;;;;;;;;4973158;28;20498;-73
2023/03/13 13:46:50;;;;;;;0.60;0.20;;;16.60;99.90;;;;;;4973581;28;20827;-74
2023/03/13 13:49:20;;;;;;;0.60;0.10;;;16.80;99.90;;;;;;4976772;28;20438;-73
2023/03/13 13:52:39;;;;;;;0.60;0.10;;;17.10;99.90;;;;;;4977270;28;21161;-75
2023/03/13 13:55:31;;;;;;;0.60;0.10;;;17.20;99.90;;;;;;4967845;28;20851;-75
2023/03/13 13:58:04;;;;;;;0.60;0.17;;;17.30;99.90;;;;;;4971420;28;20497;-75
2023/03/13 14:00:41;;;;;;;0.60;0.10;;;17.40;99.90;;;;;;4974483;28;20445;-74
2023/03/13 14:03:18;;;;;;;0.60;0.10;;;;;;;;;;4975133;28;20459;-75
2023/03/13 14:05:51;;;;;;;0.60;0.10;;;17.70;99.90;;;;;;4973210;28;20469;-73
2023/03/13 14:08:24;;;;;;;0.60;0.10;;;17.70;99.90;;;;;;4975291;28;20453;-74
2023/03/13 14:11:09;;;;;;;0.90;0.80;;;17.70;99.90;;;;;;4976009;28;21026;-75
2023/03/13 14:13:39;;;;;;;0.60;0.20;;;17.70;99.90;;;;;;4975980;28;20449;-75
2023/03/13 14:16:21;;;;;;;0.60;0.10;;;17.70;99.90;;;;;;4967436;28;20856;-74
2023/03/13 14:18:51;;;;;;;0.60;0.10;;;17.70;99.90;;;;;;4973381;28;20459;-75
2023/03/13 14:21:22;;;;;;;0.60;0.20;;;17.60;99.90;;;;;;4976015;28;20438;-72
2023/03/13 14:23:50;;;;;;;0.60;0.10;;;17.60;99.90;;;;;;4975694;28;20979;-73
2023/03/13 14:26:22;;;;;;;0.60;0.10;;;17.60;99.90;;;;;;4975506;28;20511;-73
2023/03/13 14:28:52;;;;;;;0.60;0.10;;;17.60;99.90;;;;;;4975651;28;20456;-73
2023/03/13 14:31:29;;;;;;;0.60;0.10;;;17.60;99.90;;;;;;4967537;28;20485;-75
2023/03/13 14:33:58;;;;;;;2.60;1.07;;;17.60;99.90;;;;;;4975668;28;20445;-74
2023/03/13 14:36:27;;;;;;;0.60;0.10;;;17.60;99.90;;;;;;4975718;28;20469;-74
2023/03/13 14:38:56;;;;;;;0.60;0.10;;;17.60;99.90;;;;;;4975012;28;20461;-74
2023/03/13 14:41:30;;;;;;;0.60;0.10;;;17.60;99.90;;;;;;4975109;28;20482;-73
2023/03/13 14:44:06;;;;;;;0.70;0.60;;;17.70;99.90;;;;;;4976946;28;20449;-73
2023/03/13 14:46:36;;;;;;;5.53;5.20;;;17.70;99.90;;;;;;4976945;28;20462;-73
2023/03/13 14:49:14;;;;;;;0.60;0.20;;;17.70;99.90;;;;;;4976652;28;20474;-73
2023/03/13 14:51:42;;;;;;;2.23;0.40;;;15.30;99.90;;;;;;4970847;28;20530;-72
2023/03/13 14:54:27;;;;;;;0.60;0.10;;;17.80;99.90;;;;;;4971858;28;20453;-73
2023/03/13 14:57:19;;;;;;;0.60;0.10;;;17.70;99.90;;;;;;4972687;28;20628;-73
2023/03/13 14:59:48;;;;;;;0.60;0.10;;;17.70;99.90;;;;;;4961453;29;20452;-72
2023/03/13 15:02:22;;;;;;;0.60;0.10;;;17.80;99.90;;;;;;4976103;28;20468;-73
2023/03/13 15:04:58;;;;;;;0.60;0.10;;;17.70;99.90;;;;;;4979653;28;20560;-72
2023/03/13 15:07:35;;;;;;;0.60;0.40;;;17.70;99.90;;;;;;4976566;28;20456;-73
2023/03/13 15:10:17;;;;;;;0.60;0.10;;;17.70;99.90;;;;;;4975159;28;20452;-73
2023/03/13 15:12:46;;;;;;;1.33;1.23;;;17.60;99.90;;;;;;4975262;28;20498;-73
2023/03/13 15:15:14;;;;;;;0.70;0.20;;;17.60;99.90;;;;;;4972182;28;20480;-75
2023/03/13 15:17:42;;;;;;;0.60;0.10;;;17.60;99.90;;;;;;4974201;28;20449;-73
2023/03/13 15:20:13;;;;;;;0.60;0.23;;;17.50;99.90;;;;;;4974473;28;20468;-73
2023/03/13 15:22:44;;;;;;;0.60;0.20;;;17.30;99.90;;;;;;4975521;28;20441;-73
2023/03/13 15:25:16;;;;;;;0.60;0.20;;;16.10;99.90;;;;;;4975203;28;20466;-72
2023/03/13 15:27:45;;;;;;;0.60;0.10;;;16.00;99.90;;;;;;4975439;28;20449;-73
2023/03/13 15:30:15;;;;;;;4.13;1.73;;;15.40;99.90;;;;;;4974600;28;20464;-72
2023/03/13 15:32:45;;;;;;;0.77;0.50;;;15.00;99.90;;;;;;4974863;28;20534;-73
2023/03/13 15:35:26;;;;;;;1.20;0.70;;;14.10;1.00;;;;;;4976236;28;20501;-74
2023/03/13 15:37:53;;;;;;;0.70;0.57;;;13.70;1.00;;;;;;4969787;28;20500;-73
2023/03/13 15:40:23;;;;;;;1.47;0.97;;;13.70;1.00;;;;;;4974727;28;20450;-76
2023/03/13 15:42:52;;;;;;;0.60;0.20;;;13.40;1.00;;;;;;4975293;28;20458;-73
2023/03/13 15:45:20;;;;;;;0.90;0.70;;;13.50;1.00;;;;;;4976492;28;20907;-74
2023/03/13 15:47:48;;;;;;;1.47;0.40;;;13.50;1.00;;;;;;4975566;28;20500;-74
2023/03/13 15:50:19;;;;;;;1.00;0.40;;;13.60;1.00;;;;;;4977673;28;20438;-76
2023/03/13 15:52:46;;;;;;;0.80;0.50;;;13.70;1.00;;;;;;4970946;28;20450;-74
2023/03/13 15:55:14;;;;;;;0.70;0.40;;;13.60;1.00;;;;;;4974781;28;20475;-73
2023/03/13 15:57:45;;;;;;;1.03;0.50;;;13.60;1.00;;;;;;4978295;28;20941;-75
2023/03/13 16:00:18;;;;;;;0.60;0.20;;;13.60;1.00;;;;;;4975465;28;20871;-74
2023/03/13 16:02:46;;;;;;;0.60;0.17;;;13.60;1.00;;;;;;4966482;28;20453;-73
2023/03/13 16:05:15;;;;;;;1.40;0.80;;;13.60;1.00;;;;;;4973730;28;21031;-73
2023/03/13 16:07:43;;;;;;;0.93;0.93;;;13.60;1.00;;;;;;4974255;28;20449;-73
2023/03/13 16:10:16;;;;;;;0.60;0.50;;;13.50;1.00;;;;;;4973960;28;20931;-72
2023/03/13 16:12:52;;;;;;;0.60;0.20;;;13.50;1.00;;;;;;5129971;27;20582;-74
2023/03/13 16:15:20;;;;;;;0.70;0.40;;;13.50;1.00;;;;;;5118443;27;20484;-74
2023/03/13 16:17:48;;;;;;;0.60;0.10;;;13.50;1.00;;;;;;5109881;28;20449;-73
2023/03/13 16:20:19;;;;;;;0.60;0.30;;;13.60;1.00;;;;;;5110082;28;20434;-74
2023/03/13 16:22:47;;;;;;;0.83;0.53;;;13.60;1.00;;;;;;5109224;28;20496;-74
2023/03/13 16:25:15;;;;;;;1.53;1.43;;;13.60;1.00;;;;;;5109344;28;20457;-74
2023/03/13 16:27:43;;;;;;;0.60;0.10;;;13.60;1.00;;;;;;5109688;28;20453;-76
2023/03/13 16:30:18;;;;;;;0.80;0.63;;;13.60;1.00;;;;;;5109642;28;20929;-74
2023/03/13 16:32:46;;;;;;;0.60;0.10;;;13.60;1.00;;;;;;5089512;28;20508;-73
2023/03/13 16:35:14;;;;;;;0.60;0.10;;;13.80;1.00;;;;;;5098800;28;20487;-73
2023/03/13 16:37:44;;;;;;;1.17;0.93;;;13.80;1.00;;;;;;5110543;28;20942;-72
2023/03/13 16:40:17;;;;;;;0.60;0.10;;;13.80;1.00;;;;;;5109597;28;20454;-74
2023/03/13 16:42:45;;;;;;;0.60;0.10;;;13.80;1.00;;;;;;5109304;28;20936;-73
2023/03/13 16:45:14;;;;;;;0.60;0.10;;;13.80;1.00;;;;;;5109318;28;20463;-74
2023/03/13 16:47:44;;;;;;;0.60;0.10;;;13.80;1.00;;;;;;5109334;28;20454;-76
2023/03/13 16:50:25;;;;;;;0.60;0.10;;;13.80;1.00;;;;;;5109345;28;20443;-74
2023/03/13 16:52:54;;;;;;;0.83;0.83;;;13.70;1.00;;;;;;5106433;28;20478;-74
2023/03/13 16:55:26;;;;;;;0.60;0.10;;;13.70;1.00;;;;;;5098177;28;20559;-74
2023/03/13 16:57:55;;;;;;;0.60;0.20;;;13.60;1.00;;;;;;5108242;28;20487;-75
2023/03/13 17:00:24;;;;;;;0.50;0.10;;;13.50;1.00;;;;;;5099566;28;20494;-73
2023/03/13 17:02:55;;;;;;;0.60;0.10;;;13.40;1.00;;;;;;5113513;28;20439;-74
2023/03/13 17:05:24;;;;;;;0.60;0.20;;;13.30;1.00;;;;;;5100327;28;20465;-74
2023/03/13 17:07:53;;;;;;;0.60;0.10;;;13.30;1.00;;;;;;5107682;28;20968;-73
2023/03/13 17:10:23;;;;;;;0.50;0.13;;;13.30;1.00;;;;;;5101095;28;20463;-73
2023/03/13 17:12:51;;;;;;;0.57;0.10;;;13.40;1.00;;;;;;5106035;28;20541;-74
2023/03/13 17:15:20;;;;;;;0.60;0.10;;;13.40;1.00;;;;;;5108592;28;20451;-73
2023/03/13 17:17:51;;;;;;;0.57;0.10;;;13.40;1.00;;;;;;5109239;28;20456;-74
2023/03/13 17:20:22;;;;;;;0.60;0.20;;;13.40;1.00;;;;;;5108910;28;20532;-72
2023/03/13 17:22:50;;;;;;;0.60;0.10;;;13.40;1.00;;;;;;5101045;28;20457;-72